Bavaria

Go HERE for most recent data if this page is not up to date.

Jump to table bottom
Date Time Temp F RH % AVG Wind Max Wind Wind Dir 24 Snow Depth
*02/08/23 20 6.9 83 4 9 SE - 122 3.1 77.5
*02/08/23 19 7.3 83 5 13 NE - 60 2.1 77.0
*02/08/23 18 7.6 83 5 10 SE - 125 1.2 -19.7
*02/08/23 17 7.6 83 5 9 E - 68 0.1 74.8
*02/08/23 16 8.7 77 6 16 SW - 242 0.0 74.9
*02/08/23 15 9.7 75 8 15 W - 259 0.0 143.3
*02/08/23 14 8.0 79 11 22 W - 261 0.0 143.3
*02/08/23 13 8.7 75 9 19 SW - 245 -0.0 143.3
*02/08/23 12 9.3 72 16 26 W - 282 -0.0 143.3
*02/08/23 11 7.1 76 19 28 NW - 297 -0.1 143.3
*02/08/23 10 7.1 81 23 36 W - 281 0.0 143.3
*02/08/23 09 6.5 79 22 32 W - 261 0.0 143.3
*02/08/23 08 8.7 84 19 32 W - 272 0.0 76.8
*02/08/23 07 12.4 85 15 22 W - 250 0.0 74.8
*02/08/23 06 14.1 81 19 27 W - 248 0.1 74.2
*02/08/23 05 15.0 77 17 26 SW - 244 0.1 74.0
*02/08/23 04 15.5 76 19 33 W - 248 0.2 73.9
*02/08/23 03 16.1 76 23 30 W - 259 0.1 74.3
*02/08/23 02 16.6 78 20 29 W - 273 0.1 74.0
*02/08/23 01 17.0 84 20 29 W - 271 0.1 74.1
*02/08/23 00 18.0 79 22 32 SW - 242 0.1 143.3
*02/07/23 23 18.9 77 24 32 W - 264 0.1 73.8
*02/07/23 22 20.7 70 19 33 SW - 241 0.1 73.4
*02/07/23 21 21.9 64 16 25 W - 256 0.2 73.3
*02/07/23 20 22.5 60 11 18 SW - 239 0.2 73.1
*02/07/23 19 20.7 66 13 20 SW - 236 0.1 73.2
*02/07/23 18 21.3 69 9 16 W - 265 0.2 73.2
*02/07/23 17 21.1 68 8 13 W - 268 0.0 73.0
*02/07/23 16 24.1 60 8 13 SW - 236 -0.1 73.0
*02/07/23 15 23.9 61 7 14 SW - 240 -0.1 73.0
*02/07/23 14 24.6 71 9 15 SW - 223 -0.0 73.3
*02/07/23 13 23.1 74 8 16 W - 253 -0.2 73.8
*02/07/23 12 22.2 83 12 18 SW - 210 -0.0 73.9
*02/07/23 11 19.9 85 10 15 NW - 310 -0.0 74.1
*02/07/23 10 18.1 86 8 13 W - 262 -0.0 74.3
*02/07/23 09 17.5 87 10 16 SW - 204 0.0 74.4
*02/07/23 08 15.8 87 12 21 NW - 295 0.1 74.3
*02/07/23 07 16.0 87 11 18 W - 285 0.0 74.3
*02/07/23 06 16.1 87 11 18 SW - 236 0.0 74.4
*02/07/23 05 16.3 87 8 16 NW - 307 0.0 74.5
*02/07/23 04 16.1 87 9 18 W - 278 0.0 74.5
*02/07/23 03 15.6 87 11 17 W - 264 0.0 74.6
*02/07/23 02 14.7 87 10 16 SW - 218 0.0 74.6
*02/07/23 01 14.5 87 11 18 W - 256 0.0 74.6
*02/07/23 00 14.8 87 12 18 W - 268 0.0 74.7
.